createdAt,value
2019-02-07T00:01:45.554Z,4.60
2019-02-07T00:04:15.012Z,4.50
2019-02-07T00:06:44.724Z,4.50
2019-02-07T00:09:14.172Z,4.50
2019-02-07T00:11:43.708Z,4.50
2019-02-07T00:14:13.153Z,4.40
2019-02-07T00:16:42.622Z,4.40
2019-02-07T00:19:12.042Z,4.40
2019-02-07T00:21:41.496Z,4.40
2019-02-07T00:24:11.172Z,4.30
2019-02-07T00:26:40.835Z,4.30
2019-02-07T00:29:10.830Z,4.20
2019-02-07T00:31:40.463Z,4.10
2019-02-07T00:34:10.210Z,4.10
2019-02-07T00:36:39.844Z,4.00
2019-02-07T00:39:10.228Z,3.90
2019-02-07T00:41:40.210Z,3.80
2019-02-07T00:44:09.938Z,3.70
2019-02-07T00:46:39.630Z,3.70
2019-02-07T00:49:09.277Z,3.70
2019-02-07T00:51:38.936Z,3.70
2019-02-07T00:54:08.657Z,3.80
2019-02-07T00:56:39.846Z,3.90
2019-02-07T00:59:09.585Z,3.80
2019-02-07T01:01:39.270Z,3.80
2019-02-07T01:04:08.961Z,3.80
2019-02-07T01:06:38.668Z,3.90
2019-02-07T01:09:10.279Z,3.70
2019-02-07T01:11:39.980Z,3.70
2019-02-07T01:14:09.607Z,3.70
2019-02-07T01:16:39.410Z,3.60
2019-02-07T01:19:09.137Z,3.50
2019-02-07T01:21:38.812Z,3.50
2019-02-07T01:24:08.950Z,3.40
2019-02-07T01:26:38.611Z,3.30
2019-02-07T01:29:08.406Z,3.20
2019-02-07T01:31:38.024Z,3.20
2019-02-07T01:34:07.994Z,3.30
2019-02-07T01:36:37.648Z,3.30
2019-02-07T01:39:09.277Z,3.30
2019-02-07T01:41:38.904Z,3.10
2019-02-07T01:44:08.528Z,3.00
2019-02-07T01:46:38.220Z,3.00
2019-02-07T01:49:07.857Z,2.90
2019-02-07T01:51:37.509Z,2.90
2019-02-07T01:54:07.255Z,2.80
2019-02-07T01:56:36.953Z,2.80
2019-02-07T01:59:06.905Z,2.70
2019-02-07T02:01:36.530Z,2.70
2019-02-07T02:04:06.203Z,2.70
2019-02-07T02:06:36.120Z,2.70
2019-02-07T02:09:08.855Z,2.70
2019-02-07T02:11:38.479Z,2.70
2019-02-07T02:14:08.228Z,2.70
2019-02-07T02:16:37.898Z,2.70
2019-02-07T02:19:07.614Z,2.60
2019-02-07T02:21:37.370Z,2.50
2019-02-07T02:24:07.156Z,2.50
2019-02-07T02:26:36.807Z,2.60
2019-02-07T02:29:06.626Z,2.60
2019-02-07T02:31:36.362Z,2.60
2019-02-07T02:34:06.116Z,2.70
2019-02-07T02:36:35.843Z,2.70
2019-02-07T02:39:08.459Z,2.70
2019-02-07T02:41:38.084Z,2.50
2019-02-07T02:44:07.702Z,2.50
2019-02-07T02:46:37.486Z,2.60
2019-02-07T02:49:07.403Z,2.60
2019-02-07T02:51:37.127Z,2.80
2019-02-07T02:54:06.864Z,2.80
2019-02-07T02:56:36.737Z,2.80
2019-02-07T02:59:06.582Z,2.70
2019-02-07T03:01:56.584Z,2.60
2019-02-07T03:04:43.720Z,2.60
2019-02-07T03:07:35.146Z,2.60
2019-02-07T03:10:24.510Z,2.60
2019-02-07T03:13:13.097Z,2.50
2019-02-07T03:16:04.767Z,2.60
2019-02-07T03:18:53.287Z,2.60
2019-02-07T03:21:44.621Z,2.70
2019-02-07T03:24:33.220Z,2.60
2019-02-07T03:27:27.911Z,2.50
2019-02-07T03:30:15.084Z,2.50
2019-02-07T03:32:53.346Z,2.40
2019-02-07T03:35:28.828Z,2.30
2019-02-07T03:38:17.389Z,2.10
2019-02-07T03:41:14.886Z,2.10
2019-02-07T03:44:06.484Z,2.00
2019-02-07T03:47:04.016Z,1.90
2019-02-07T03:49:44.614Z,1.90
2019-02-07T03:52:25.114Z,1.80
2019-02-07T03:55:13.697Z,1.80
2019-02-07T03:58:05.108Z,1.80
2019-02-07T04:00:53.704Z,1.70
2019-02-07T04:03:51.204Z,1.70
2019-02-07T04:06:31.857Z,1.70
2019-02-07T04:09:14.634Z,1.70
2019-02-07T04:12:10.736Z,1.70
2019-02-07T04:14:57.919Z,1.80
2019-02-07T04:17:58.469Z,1.90
2019-02-07T04:20:45.587Z,1.80
2019-02-07T04:23:37.480Z,1.70
2019-02-07T04:26:37.992Z,1.70
2019-02-07T04:29:32.745Z,1.70
2019-02-07T04:32:36.567Z,1.60
2019-02-07T04:35:24.517Z,1.50
2019-02-07T04:38:24.832Z,1.50
2019-02-07T04:41:16.393Z,1.40
2019-02-07T04:44:03.452Z,1.40
2019-02-07T04:47:00.851Z,1.40
2019-02-07T04:49:55.254Z,1.30
2019-02-07T04:52:53.375Z,1.30
2019-02-07T04:55:40.826Z,1.20
2019-02-07T04:58:25.316Z,1.20
2019-02-07T05:01:26.023Z,1.10
2019-02-07T05:04:04.175Z,1.10
2019-02-07T05:06:58.475Z,1.10
2019-02-07T05:10:05.017Z,1.10
2019-02-07T05:12:49.222Z,1.10
2019-02-07T05:15:36.478Z,1.30
2019-02-07T05:18:21.900Z,1.40
2019-02-07T05:21:03.401Z,1.40
2019-02-07T05:23:50.541Z,1.30
2019-02-07T05:26:41.888Z,1.30
2019-02-07T05:29:33.445Z,1.40
2019-02-07T05:32:27.826Z,1.50
2019-02-07T05:35:16.341Z,1.50
2019-02-07T05:38:07.249Z,1.60
2019-02-07T05:40:55.825Z,1.60
2019-02-07T05:43:50.265Z,1.60
2019-02-07T05:46:50.621Z,1.60
2019-02-07T05:49:31.753Z,1.60
2019-02-07T05:52:23.168Z,1.70
2019-02-07T05:55:17.642Z,1.70
2019-02-07T05:58:21.313Z,1.60
2019-02-07T06:01:01.251Z,1.60
2019-02-07T06:03:38.998Z,1.40
2019-02-07T06:06:20.907Z,1.40
2019-02-07T06:09:28.445Z,1.40
2019-02-07T06:12:19.758Z,1.40
2019-02-07T06:15:08.900Z,1.40
2019-02-07T06:17:56.121Z,1.40
2019-02-07T06:20:44.974Z,1.50
2019-02-07T06:23:39.249Z,1.40
2019-02-07T06:26:31.046Z,1.40
2019-02-07T06:29:19.554Z,1.40
2019-02-07T06:32:16.027Z,1.40
2019-02-07T06:35:03.267Z,1.50
2019-02-07T06:37:50.188Z,1.40
2019-02-07T06:40:37.201Z,1.40
2019-02-07T06:43:44.997Z,1.50
2019-02-07T06:52:39.358Z,1.60
2019-02-07T06:55:26.761Z,1.60
2019-02-07T06:58:14.065Z,1.60
2019-02-07T07:01:20.521Z,1.60
2019-02-07T07:04:07.202Z,1.70
2019-02-07T07:06:53.955Z,1.80
2019-02-07T07:09:48.367Z,1.90
2019-02-07T07:12:29.633Z,1.90
2019-02-07T07:15:11.877Z,2.00
2019-02-07T07:18:09.724Z,1.90
2019-02-07T07:20:59.560Z,2.00
2019-02-07T07:23:57.497Z,2.00
2019-02-07T07:26:44.640Z,1.90
2019-02-07T07:29:35.401Z,2.00
2019-02-07T07:32:23.181Z,2.00
2019-02-07T07:35:14.966Z,2.10
2019-02-07T07:38:12.472Z,2.00
2019-02-07T07:40:53.885Z,2.00
2019-02-07T07:43:30.825Z,2.00
2019-02-07T07:46:20.984Z,2.00
2019-02-07T07:49:05.336Z,2.00
2019-02-07T07:52:00.046Z,2.10
2019-02-07T07:54:39.533Z,2.00
2019-02-07T07:57:36.883Z,2.10
2019-02-07T08:00:36.860Z,2.20
2019-02-07T08:03:23.794Z,2.20
2019-02-07T08:06:30.612Z,2.30
2019-02-07T08:09:24.856Z,2.30
2019-02-07T08:12:11.073Z,2.20
2019-02-07T08:14:58.137Z,2.30
2019-02-07T08:17:55.486Z,2.40
2019-02-07T08:20:42.629Z,2.50
2019-02-07T08:23:17.579Z,2.50
2019-02-07T08:26:09.110Z,2.60
2019-02-07T08:29:09.539Z,2.50
2019-02-07T08:31:58.064Z,2.70
2019-02-07T08:34:55.526Z,2.60
2019-02-07T08:37:42.760Z,2.60
2019-02-07T08:40:23.667Z,2.70
2019-02-07T08:43:15.240Z,2.70
2019-02-07T08:46:03.821Z,2.60
2019-02-07T08:48:55.214Z,2.60
2019-02-07T08:51:49.999Z,2.80
2019-02-07T08:54:37.030Z,2.80
2019-02-07T08:57:40.525Z,2.90
2019-02-07T09:00:32.112Z,2.90
2019-02-07T09:03:12.520Z,2.80
2019-02-07T09:06:16.286Z,2.80
2019-02-07T09:09:04.823Z,2.70
2019-02-07T09:11:53.059Z,2.70
2019-02-07T09:14:56.571Z,2.80
2019-02-07T09:18:09.996Z,2.90
2019-02-07T09:20:48.297Z,3.00
2019-02-07T09:23:35.215Z,3.00
2019-02-07T09:26:22.015Z,3.10
2019-02-07T09:29:00.482Z,3.30
2019-02-07T09:31:57.919Z,3.40
2019-02-07T09:34:43.896Z,3.60
2019-02-07T09:37:38.722Z,3.80
2019-02-07T09:40:27.911Z,3.90
2019-02-07T09:43:16.517Z,4.10
2019-02-07T09:46:05.015Z,4.30
2019-02-07T09:49:11.894Z,4.40
2019-02-07T09:52:03.898Z,4.60
2019-02-07T09:54:58.101Z,4.70
2019-02-07T09:57:49.764Z,4.60
2019-02-07T10:00:32.088Z,4.60
2019-02-07T10:03:35.533Z,4.50
2019-02-07T10:06:27.246Z,4.40
2019-02-07T10:09:11.617Z,4.20
2019-02-07T10:12:03.319Z,4.20
2019-02-07T10:14:57.892Z,4.10
2019-02-07T10:17:57.861Z,3.90
2019-02-07T10:20:49.317Z,3.90
2019-02-07T10:23:40.170Z,4.00
2019-02-07T10:26:27.047Z,4.10
2019-02-07T10:29:15.611Z,4.30
2019-02-07T10:32:04.365Z,4.40
2019-02-07T10:34:51.431Z,4.60
2019-02-07T10:37:44.262Z,4.90
2019-02-07T10:40:39.980Z,5.00
2019-02-07T10:43:43.833Z,5.10
2019-02-07T10:46:30.967Z,5.20
2019-02-07T10:49:17.869Z,5.10
2019-02-07T10:52:06.598Z,5.10
2019-02-07T10:54:54.255Z,5.20
2019-02-07T10:57:41.509Z,5.30
2019-02-07T11:00:44.150Z,5.50
2019-02-07T11:03:35.600Z,5.60
2019-02-07T11:06:25.203Z,5.80
2019-02-07T11:09:12.388Z,6.00
2019-02-07T11:12:12.804Z,6.20
2019-02-07T11:14:59.957Z,6.00
2019-02-07T11:17:47.675Z,6.10
2019-02-07T11:20:45.663Z,6.30
2019-02-07T11:23:52.734Z,6.20
2019-02-07T11:26:44.788Z,6.30
2019-02-07T11:29:33.361Z,6.50
2019-02-07T11:32:28.076Z,6.50
2019-02-07T11:35:15.314Z,6.60
2019-02-07T11:38:09.716Z,6.70
2019-02-07T11:41:01.506Z,6.70
2019-02-07T11:43:53.154Z,6.80
2019-02-07T11:46:48.891Z,7.00
2019-02-07T11:49:36.476Z,7.20
2019-02-07T11:52:43.807Z,7.40
2019-02-07T11:55:32.464Z,7.50
2019-02-07T11:58:27.533Z,7.40
2019-02-07T12:01:14.536Z,7.50
2019-02-07T12:03:55.803Z,7.50
2019-02-07T12:06:36.611Z,7.50
2019-02-07T12:09:26.563Z,7.30
2019-02-07T12:12:21.340Z,7.20
2019-02-07T12:15:08.647Z,7.00
2019-02-07T12:17:57.789Z,6.90
2019-02-07T12:20:52.172Z,7.00
2019-02-07T12:23:40.773Z,7.00
2019-02-07T12:26:32.826Z,7.00
2019-02-07T12:29:39.338Z,7.10
2019-02-07T12:32:29.131Z,7.30
2019-02-07T12:35:16.698Z,7.30
2019-02-07T12:38:08.650Z,7.40
2019-02-07T12:40:54.921Z,7.40
2019-02-07T12:43:46.241Z,7.20
2019-02-07T12:46:33.204Z,7.20
2019-02-07T12:49:33.243Z,7.20
2019-02-07T12:52:17.237Z,7.10
2019-02-07T12:55:05.769Z,7.10
2019-02-07T12:58:00.137Z,7.10
2019-02-07T13:00:47.038Z,7.00
2019-02-07T13:03:38.391Z,7.00
2019-02-07T13:06:25.713Z,6.90
2019-02-07T13:09:12.646Z,7.00
2019-02-07T13:12:04.021Z,7.00
2019-02-07T13:14:50.315Z,7.10
2019-02-07T13:17:44.897Z,7.10
2019-02-07T13:20:43.219Z,7.00
2019-02-07T13:23:30.368Z,6.90
2019-02-07T13:26:17.330Z,6.80
2019-02-07T13:29:00.453Z,6.70
2019-02-07T13:31:52.109Z,6.50
2019-02-07T13:34:46.484Z,6.50
2019-02-07T13:37:34.610Z,6.50
2019-02-07T13:40:32.874Z,6.60
2019-02-07T13:43:30.721Z,6.50
2019-02-07T13:46:15.849Z,6.60
2019-02-07T13:48:58.528Z,6.60
2019-02-07T13:51:58.266Z,6.40
2019-02-07T13:55:01.755Z,6.20
2019-02-07T13:57:58.952Z,6.20
2019-02-07T14:01:05.423Z,6.00
2019-02-07T14:03:52.525Z,6.00
2019-02-07T14:06:33.463Z,5.90
2019-02-07T14:09:26.734Z,5.80
2019-02-07T14:12:14.004Z,5.80
2019-02-07T14:15:03.841Z,5.90
2019-02-07T14:18:04.963Z,6.00
2019-02-07T14:20:53.558Z,5.90
2019-02-07T14:23:44.307Z,5.90
2019-02-07T14:26:31.064Z,5.70
2019-02-07T14:29:32.088Z,5.70
2019-02-07T14:32:29.524Z,5.60
2019-02-07T14:35:23.894Z,5.60
2019-02-07T14:38:10.985Z,5.60
2019-02-07T14:40:51.172Z,5.60
2019-02-07T14:43:38.164Z,5.60
2019-02-07T14:46:31.489Z,5.50
2019-02-07T14:49:01.123Z,5.50
2019-02-07T14:51:30.783Z,5.40
2019-02-07T14:54:00.797Z,5.40
2019-02-07T14:56:30.845Z,5.40
2019-02-07T14:59:01.421Z,5.40
2019-02-07T15:01:31.097Z,5.40
2019-02-07T15:04:00.770Z,5.40
2019-02-07T15:06:30.499Z,5.40
2019-02-07T15:09:00.141Z,5.40
2019-02-07T15:11:30.060Z,5.30
2019-02-07T15:13:59.826Z,5.30
2019-02-07T15:16:29.442Z,5.40
2019-02-07T15:18:59.145Z,5.40
2019-02-07T15:21:28.857Z,5.30
2019-02-07T15:23:58.507Z,5.30
2019-02-07T15:26:28.525Z,5.20
2019-02-07T15:28:58.133Z,5.30
2019-02-07T15:31:27.832Z,5.30
2019-02-07T15:33:57.475Z,5.30
2019-02-07T15:36:27.103Z,5.40
2019-02-07T15:38:56.741Z,5.40
2019-02-07T15:41:26.662Z,5.40
2019-02-07T15:43:56.325Z,5.40
2019-02-07T15:46:26.098Z,5.40
2019-02-07T15:48:55.791Z,5.40
2019-02-07T15:51:25.384Z,5.40
2019-02-07T15:53:55.068Z,5.40
2019-02-07T15:56:24.901Z,5.40
2019-02-07T15:59:10.640Z,5.30
2019-02-07T16:01:59.192Z,5.30
2019-02-07T16:04:31.967Z,5.30
2019-02-07T16:07:01.577Z,5.20
2019-02-07T16:09:31.261Z,5.20
2019-02-07T16:12:00.919Z,5.20
2019-02-07T16:14:31.644Z,5.10
2019-02-07T16:17:01.671Z,5.10
2019-02-07T16:19:31.631Z,5.10
2019-02-07T16:22:01.225Z,5.00
2019-02-07T16:24:30.857Z,4.90
2019-02-07T16:27:00.492Z,4.80
2019-02-07T16:29:30.138Z,4.80
2019-02-07T16:31:59.968Z,4.90
2019-02-07T16:34:29.624Z,4.80
2019-02-07T16:36:59.389Z,4.70
2019-02-07T16:39:29.060Z,4.60
2019-02-07T16:42:05.861Z,4.70
2019-02-07T16:44:30.567Z,4.60
2019-02-07T16:47:00.196Z,4.60
2019-02-07T16:49:29.833Z,4.60
2019-02-07T16:51:59.465Z,4.60
2019-02-07T16:54:29.228Z,4.60
2019-02-07T16:56:58.904Z,4.50
2019-02-07T16:59:28.904Z,4.50
2019-02-07T17:01:58.667Z,4.40
2019-02-07T17:04:28.373Z,4.50
2019-02-07T17:06:58.017Z,4.40
2019-02-07T17:09:36.358Z,4.40
2019-02-07T17:12:06.696Z,4.40
2019-02-07T17:14:36.423Z,4.40
2019-02-07T17:17:06.134Z,4.40
2019-02-07T17:19:35.827Z,4.40
2019-02-07T17:22:05.945Z,4.40
2019-02-07T17:24:35.623Z,4.40
2019-02-07T17:27:05.748Z,4.40
2019-02-07T17:29:35.427Z,4.30
2019-02-07T17:32:05.412Z,4.40
2019-02-07T17:34:35.264Z,4.20
2019-02-07T17:37:04.922Z,4.20
2019-02-07T17:39:34.672Z,4.10
2019-02-07T17:42:04.676Z,4.10
2019-02-07T17:44:34.404Z,4.10
2019-02-07T17:47:04.064Z,4.10
2019-02-07T17:49:33.721Z,4.20
2019-02-07T17:52:03.398Z,4.20
2019-02-07T17:54:33.131Z,4.20
2019-02-07T17:57:03.081Z,4.20
2019-02-07T17:59:32.969Z,4.10
2019-02-07T18:02:04.235Z,4.10
2019-02-07T18:04:33.863Z,4.10
2019-02-07T18:07:03.899Z,4.10
2019-02-07T18:09:33.576Z,4.10
2019-02-07T18:12:03.227Z,4.00
2019-02-07T18:14:32.882Z,3.90
2019-02-07T18:17:02.554Z,3.90
2019-02-07T18:19:32.318Z,3.80
2019-02-07T18:22:01.961Z,3.70
2019-02-07T18:24:31.628Z,3.70
2019-02-07T18:27:01.304Z,3.70
2019-02-07T18:29:30.995Z,3.70
2019-02-07T18:32:00.647Z,3.70
2019-02-07T18:34:30.963Z,3.60
2019-02-07T18:37:00.596Z,3.60
2019-02-07T18:39:30.852Z,3.70
2019-02-07T18:42:00.573Z,3.70
2019-02-07T18:44:30.434Z,3.70
2019-02-07T18:47:00.087Z,3.70
2019-02-07T18:49:30.676Z,3.70
2019-02-07T18:52:00.347Z,3.70
2019-02-07T18:54:30.057Z,3.70
2019-02-07T18:56:59.709Z,3.70
2019-02-07T18:59:29.382Z,3.70
2019-02-07T19:01:59.045Z,3.70
2019-02-07T19:04:28.722Z,3.70
2019-02-07T19:06:58.491Z,3.70
2019-02-07T19:09:28.246Z,3.70
2019-02-07T19:11:57.972Z,3.70
2019-02-07T19:14:27.607Z,3.80
2019-02-07T19:16:57.251Z,3.80
2019-02-07T19:19:26.938Z,3.80
2019-02-07T19:21:57.549Z,3.80
2019-02-07T19:24:27.313Z,3.80
2019-02-07T19:26:56.977Z,3.80
2019-02-07T19:29:26.610Z,3.80
2019-02-07T19:31:56.437Z,3.80
2019-02-07T19:34:26.099Z,3.80
2019-02-07T19:36:55.738Z,3.70
2019-02-07T19:39:25.417Z,3.70
2019-02-07T19:41:55.083Z,3.70
2019-02-07T19:44:24.782Z,3.70
2019-02-07T19:46:54.479Z,3.70
2019-02-07T19:49:24.283Z,3.70
2019-02-07T19:51:53.953Z,3.70
2019-02-07T19:54:23.652Z,3.60
2019-02-07T19:56:53.533Z,3.70
2019-02-07T19:59:23.159Z,3.70
2019-02-07T20:01:52.768Z,3.70
2019-02-07T20:04:22.489Z,3.70
2019-02-07T20:06:52.138Z,3.70
2019-02-07T20:09:22.138Z,3.70
2019-02-07T20:11:52.019Z,3.70
2019-02-07T20:14:21.669Z,3.60
2019-02-07T20:16:51.333Z,3.60
2019-02-07T20:19:20.973Z,3.60
2019-02-07T20:21:50.657Z,3.60
2019-02-07T20:24:20.328Z,3.60
2019-02-07T20:26:50.310Z,3.60
2019-02-07T20:29:20.013Z,3.60
2019-02-07T20:31:49.932Z,3.60
2019-02-07T20:34:19.624Z,3.60
2019-02-07T20:36:49.249Z,3.50
2019-02-07T20:39:19.056Z,3.50
2019-02-07T20:41:48.736Z,3.60
2019-02-07T20:44:18.395Z,3.70
2019-02-07T20:46:48.151Z,3.70
2019-02-07T20:49:17.832Z,3.70
2019-02-07T20:51:47.491Z,3.80
2019-02-07T20:54:17.198Z,3.70
2019-02-07T20:56:46.832Z,3.70
2019-02-07T20:59:16.835Z,3.70
2019-02-07T21:01:46.485Z,3.80
2019-02-07T21:04:16.181Z,3.80
2019-02-07T21:06:45.819Z,3.70
2019-02-07T21:09:15.479Z,3.70
2019-02-07T21:11:45.106Z,3.70
2019-02-07T21:14:15.101Z,3.60
2019-02-07T21:16:44.848Z,3.70
2019-02-07T21:19:14.530Z,3.70
2019-02-07T21:21:44.384Z,3.60
2019-02-07T21:24:14.039Z,3.60
2019-02-07T21:26:43.720Z,3.60
2019-02-07T21:29:13.412Z,3.60
2019-02-07T21:31:43.122Z,3.60
2019-02-07T21:34:12.815Z,3.60
2019-02-07T21:36:42.529Z,3.60
2019-02-07T21:39:12.394Z,3.60
2019-02-07T21:41:42.104Z,3.60
2019-02-07T21:44:11.853Z,3.60
2019-02-07T21:46:41.807Z,3.50
2019-02-07T21:49:11.590Z,3.60
2019-02-07T21:51:41.238Z,3.60
2019-02-07T21:54:11.015Z,3.60
2019-02-07T21:56:40.716Z,3.60
2019-02-07T21:59:10.405Z,3.60
2019-02-07T22:01:40.633Z,3.60
2019-02-07T22:04:10.341Z,3.60
2019-02-07T22:06:40.020Z,3.60
2019-02-07T22:09:13.314Z,3.60
2019-02-07T22:11:43.007Z,3.60
2019-02-07T22:14:12.694Z,3.60
2019-02-07T22:16:42.562Z,3.60
2019-02-07T22:19:12.291Z,3.60
2019-02-07T22:21:41.941Z,3.60
2019-02-07T22:24:11.647Z,3.50
2019-02-07T22:26:41.286Z,3.50
2019-02-07T22:29:10.980Z,3.50
2019-02-07T22:31:41.186Z,3.50
2019-02-07T22:34:10.951Z,3.50
2019-02-07T22:36:40.657Z,3.50
2019-02-07T22:39:10.420Z,3.50
2019-02-07T22:41:40.134Z,3.50
2019-02-07T22:44:09.882Z,3.50
2019-02-07T22:46:39.508Z,3.50
2019-02-07T22:49:09.257Z,3.50
2019-02-07T22:51:39.828Z,3.50
2019-02-07T22:54:09.646Z,3.50
2019-02-07T22:56:45.398Z,3.50
2019-02-07T22:59:10.606Z,3.50
2019-02-07T23:01:52.799Z,3.50
2019-02-07T23:04:23.981Z,3.50
2019-02-07T23:06:53.789Z,3.40
2019-02-07T23:09:23.501Z,3.50
2019-02-07T23:11:53.555Z,3.50
2019-02-07T23:14:23.571Z,3.50
2019-02-07T23:16:53.355Z,3.50
2019-02-07T23:19:22.979Z,3.40
2019-02-07T23:21:52.717Z,3.40
2019-02-07T23:24:22.531Z,3.30
2019-02-07T23:26:52.503Z,3.30
2019-02-07T23:29:22.148Z,3.30
2019-02-07T23:31:51.825Z,3.30
2019-02-07T23:34:21.456Z,3.30
2019-02-07T23:36:51.124Z,3.30
2019-02-07T23:39:20.774Z,3.30
2019-02-07T23:41:50.628Z,3.30
2019-02-07T23:44:20.351Z,3.40
2019-02-07T23:46:50.017Z,3.40
2019-02-07T23:49:19.650Z,3.30
2019-02-07T23:51:49.309Z,3.30
2019-02-07T23:54:18.983Z,3.40
2019-02-07T23:56:49.070Z,3.40
2019-02-07T23:59:18.700Z,3.40
